sensor_id;sensor_type;location;lat;lon;timestamp;temperature;humidity
2973;DHT22;1496;51.404;7.232;2023-02-15T00:01:48;6.20;99.90
2973;DHT22;1496;51.404;7.232;2023-02-15T00:04:19;6.10;99.90
2973;DHT22;1496;51.404;7.232;2023-02-15T00:06:47;6.10;99.90
2973;DHT22;1496;51.404;7.232;2023-02-15T00:09:14;6.00;99.90
2973;DHT22;1496;51.404;7.232;2023-02-15T00:11:41;5.90;99.90
2973;DHT22;1496;51.404;7.232;2023-02-15T00:14:23;5.90;99.90
2973;DHT22;1496;51.404;7.232;2023-02-15T00:16:51;5.90;99.90
2973;DHT22;1496;51.404;7.232;2023-02-15T00:19:20;5.80;99.90
2973;DHT22;1496;51.404;7.232;2023-02-15T00:21:48;5.80;99.90
2973;DHT22;1496;51.404;7.232;2023-02-15T00:24:17;5.70;99.90
2973;DHT22;1496;51.404;7.232;2023-02-15T00:26:46;5.70;99.90
2973;DHT22;1496;51.404;7.232;2023-02-15T00:29:14;5.70;99.90
2973;DHT22;1496;51.404;7.232;2023-02-15T00:31:42;5.80;99.90
2973;DHT22;1496;51.404;7.232;2023-02-15T00:34:18;5.70;99.90
2973;DHT22;1496;51.404;7.232;2023-02-15T00:36:45;5.60;99.90
2973;DHT22;1496;51.404;7.232;2023-02-15T00:39:14;5.50;99.90
2973;DHT22;1496;51.404;7.232;2023-02-15T00:41:44;5.50;99.90
2973;DHT22;1496;51.404;7.232;2023-02-15T00:44:12;5.50;99.90
2973;DHT22;1496;51.404;7.232;2023-02-15T00:46:40;5.50;99.90
2973;DHT22;1496;51.404;7.232;2023-02-15T00:49:09;5.40;99.90
2973;DHT22;1496;51.404;7.232;2023-02-15T00:51:37;5.40;99.90
2973;DHT22;1496;51.404;7.232;2023-02-15T00:54:04;5.40;99.90
2973;DHT22;1496;51.404;7.232;2023-02-15T00:56:31;5.50;99.90
2973;DHT22;1496;51.404;7.232;2023-02-15T00:59:00;5.60;99.90
2973;DHT22;1496;51.404;7.232;2023-02-15T01:01:27;5.60;99.90
2973;DHT22;1496;51.404;7.232;2023-02-15T01:03:54;5.50;99.90
2973;DHT22;1496;51.404;7.232;2023-02-15T01:06:21;5.60;99.90
2973;DHT22;1496;51.404;7.232;2023-02-15T01:08:48;5.50;99.90
2973;DHT22;1496;51.404;7.232;2023-02-15T01:11:17;5.60;99.90
2973;DHT22;1496;51.404;7.232;2023-02-15T01:13:52;5.50;99.90
2973;DHT22;1496;51.404;7.232;2023-02-15T01:16:19;5.60;99.90
2973;DHT22;1496;51.404;7.232;2023-02-15T01:18:46;5.60;99.90
2973;DHT22;1496;51.404;7.232;2023-02-15T01:21:20;5.60;99.90
2973;DHT22;1496;51.404;7.232;2023-02-15T01:23:49;5.60;99.90
2973;DHT22;1496;51.404;7.232;2023-02-15T01:26:16;5.50;99.90
2973;DHT22;1496;51.404;7.232;2023-02-15T01:28:44;5.50;99.90
2973;DHT22;1496;51.404;7.232;2023-02-15T01:31:14;5.50;99.90
2973;DHT22;1496;51.404;7.232;2023-02-15T01:33:45;5.60;99.90
2973;DHT22;1496;51.404;7.232;2023-02-15T01:36:11;5.60;99.90
2973;DHT22;1496;51.404;7.232;2023-02-15T01:38:38;5.70;99.90
2973;DHT22;1496;51.404;7.232;2023-02-15T01:41:10;5.80;99.90
2973;DHT22;1496;51.404;7.232;2023-02-15T01:43:58;5.80;99.90
2973;DHT22;1496;51.404;7.232;2023-02-15T01:46:39;5.80;99.90
2973;DHT22;1496;51.404;7.232;2023-02-15T01:49:14;5.70;99.90
2973;DHT22;1496;51.404;7.232;2023-02-15T01:51:43;5.70;99.90
2973;DHT22;1496;51.404;7.232;2023-02-15T01:54:19;5.70;99.90
2973;DHT22;1496;51.404;7.232;2023-02-15T01:56:52;5.70;99.90
2973;DHT22;1496;51.404;7.232;2023-02-15T01:59:23;5.60;99.90
2973;DHT22;1496;51.404;7.232;2023-02-15T02:01:57;5.60;99.90
2973;DHT22;1496;51.404;7.232;2023-02-15T02:04:47;5.60;99.90
2973;DHT22;1496;51.404;7.232;2023-02-15T02:07:21;5.70;99.90
2973;DHT22;1496;51.404;7.232;2023-02-15T02:09:48;5.70;99.90
2973;DHT22;1496;51.404;7.232;2023-02-15T02:12:17;5.70;99.90
2973;DHT22;1496;51.404;7.232;2023-02-15T02:14:45;5.70;99.90
2973;DHT22;1496;51.404;7.232;2023-02-15T02:17:37;5.80;99.90
2973;DHT22;1496;51.404;7.232;2023-02-15T02:20:28;5.70;99.90
2973;DHT22;1496;51.404;7.232;2023-02-15T02:23:29;5.80;99.90
2973;DHT22;1496;51.404;7.232;2023-02-15T02:31:54;5.60;99.90
2973;DHT22;1496;51.404;7.232;2023-02-15T02:34:32;5.60;99.90
2973;DHT22;1496;51.404;7.232;2023-02-15T02:42:56;5.60;99.90
2973;DHT22;1496;51.404;7.232;2023-02-15T02:45:30;5.40;99.90
2973;DHT22;1496;51.404;7.232;2023-02-15T02:48:14;5.50;99.90
2973;DHT22;1496;51.404;7.232;2023-02-15T02:50:41;5.40;99.90
2973;DHT22;1496;51.404;7.232;2023-02-15T02:53:09;5.40;99.90
2973;DHT22;1496;51.404;7.232;2023-02-15T02:56:06;5.40;99.90
2973;DHT22;1496;51.404;7.232;2023-02-15T02:58:39;5.40;99.90
2973;DHT22;1496;51.404;7.232;2023-02-15T03:01:32;5.40;99.90
2973;DHT22;1496;51.404;7.232;2023-02-15T03:04:09;5.50;99.90
2973;DHT22;1496;51.404;7.232;2023-02-15T03:09:23;5.30;99.90
2973;DHT22;1496;51.404;7.232;2023-02-15T03:11:51;5.30;99.90
2973;DHT22;1496;51.404;7.232;2023-02-15T03:14:19;5.40;99.90
2973;DHT22;1496;51.404;7.232;2023-02-15T03:16:47;5.40;99.90
2973;DHT22;1496;51.404;7.232;2023-02-15T03:19:25;5.40;99.90
2973;DHT22;1496;51.404;7.232;2023-02-15T03:22:04;5.40;99.90
2973;DHT22;1496;51.404;7.232;2023-02-15T03:24:43;5.40;99.90
2973;DHT22;1496;51.404;7.232;2023-02-15T03:27:17;5.40;99.90
2973;DHT22;1496;51.404;7.232;2023-02-15T03:29:55;5.30;99.90
2973;DHT22;1496;51.404;7.232;2023-02-15T03:32:25;5.30;99.90
2973;DHT22;1496;51.404;7.232;2023-02-15T03:34:54;5.20;99.90
2973;DHT22;1496;51.404;7.232;2023-02-15T03:40:07;5.20;99.90
2973;DHT22;1496;51.404;7.232;2023-02-15T03:43:16;5.20;99.90
2973;DHT22;1496;51.404;7.232;2023-02-15T03:45:47;5.20;99.90
2973;DHT22;1496;51.404;7.232;2023-02-15T03:48:30;5.30;99.90
2973;DHT22;1496;51.404;7.232;2023-02-15T03:51:01;5.30;99.90
2973;DHT22;1496;51.404;7.232;2023-02-15T03:53:48;5.50;99.90
2973;DHT22;1496;51.404;7.232;2023-02-15T03:56:16;5.50;99.90
2973;DHT22;1496;51.404;7.232;2023-02-15T03:58:43;5.40;99.90
2973;DHT22;1496;51.404;7.232;2023-02-15T04:01:39;5.40;99.90
2973;DHT22;1496;51.404;7.232;2023-02-15T04:04:45;5.50;99.90
2973;DHT22;1496;51.404;7.232;2023-02-15T04:07:14;5.50;99.90
2973;DHT22;1496;51.404;7.232;2023-02-15T04:09:41;5.60;99.90
2973;DHT22;1496;51.404;7.232;2023-02-15T04:12:28;5.50;99.90
2973;DHT22;1496;51.404;7.232;2023-02-15T04:14:55;5.50;99.90
2973;DHT22;1496;51.404;7.232;2023-02-15T04:17:39;5.50;99.90
2973;DHT22;1496;51.404;7.232;2023-02-15T04:20:07;5.50;99.90
2973;DHT22;1496;51.404;7.232;2023-02-15T04:22:53;5.40;99.90
2973;DHT22;1496;51.404;7.232;2023-02-15T04:25:39;5.40;99.90
2973;DHT22;1496;51.404;7.232;2023-02-15T04:28:06;5.40;99.90
2973;DHT22;1496;51.404;7.232;2023-02-15T04:30:35;5.40;99.90
2973;DHT22;1496;51.404;7.232;2023-02-15T04:33:01;5.50;99.90
2973;DHT22;1496;51.404;7.232;2023-02-15T04:35:27;5.40;99.90
2973;DHT22;1496;51.404;7.232;2023-02-15T04:37:54;5.40;99.90
2973;DHT22;1496;51.404;7.232;2023-02-15T04:40:22;5.40;99.90
2973;DHT22;1496;51.404;7.232;2023-02-15T04:42:49;5.40;99.90
2973;DHT22;1496;51.404;7.232;2023-02-15T04:45:17;5.20;99.90
2973;DHT22;1496;51.404;7.232;2023-02-15T04:47:45;5.20;99.90
2973;DHT22;1496;51.404;7.232;2023-02-15T04:50:12;5.10;99.90
2973;DHT22;1496;51.404;7.232;2023-02-15T04:52:40;5.10;99.90
2973;DHT22;1496;51.404;7.232;2023-02-15T04:55:07;5.10;99.90
2973;DHT22;1496;51.404;7.232;2023-02-15T04:57:35;5.20;99.90
2973;DHT22;1496;51.404;7.232;2023-02-15T05:00:03;5.10;99.90
2973;DHT22;1496;51.404;7.232;2023-02-15T05:02:31;5.10;99.90
2973;DHT22;1496;51.404;7.232;2023-02-15T05:04:58;5.00;99.90
2973;DHT22;1496;51.404;7.232;2023-02-15T05:07:25;5.00;99.90
2973;DHT22;1496;51.404;7.232;2023-02-15T05:09:52;5.00;99.90
2973;DHT22;1496;51.404;7.232;2023-02-15T05:12:20;5.00;99.90
2973;DHT22;1496;51.404;7.232;2023-02-15T05:14:47;5.00;99.90
2973;DHT22;1496;51.404;7.232;2023-02-15T05:17:13;5.10;99.90
2973;DHT22;1496;51.404;7.232;2023-02-15T05:19:40;5.10;99.90
2973;DHT22;1496;51.404;7.232;2023-02-15T05:22:07;5.00;99.90
2973;DHT22;1496;51.404;7.232;2023-02-15T05:24:35;4.90;99.90
2973;DHT22;1496;51.404;7.232;2023-02-15T05:27:20;5.00;99.90
2973;DHT22;1496;51.404;7.232;2023-02-15T05:30:06;4.90;99.90
2973;DHT22;1496;51.404;7.232;2023-02-15T05:32:39;4.80;99.90
2973;DHT22;1496;51.404;7.232;2023-02-15T05:35:07;4.90;99.90
2973;DHT22;1496;51.404;7.232;2023-02-15T05:37:34;5.00;99.90
2973;DHT22;1496;51.404;7.232;2023-02-15T05:40:01;5.00;99.90
2973;DHT22;1496;51.404;7.232;2023-02-15T05:42:29;4.90;99.90
2973;DHT22;1496;51.404;7.232;2023-02-15T05:44:56;4.80;99.90
2973;DHT22;1496;51.404;7.232;2023-02-15T05:47:23;4.80;99.90
2973;DHT22;1496;51.404;7.232;2023-02-15T05:49:50;4.80;99.90
2973;DHT22;1496;51.404;7.232;2023-02-15T05:52:18;4.90;99.90
2973;DHT22;1496;51.404;7.232;2023-02-15T05:54:44;4.90;99.90
2973;DHT22;1496;51.404;7.232;2023-02-15T05:57:11;4.90;99.90
2973;DHT22;1496;51.404;7.232;2023-02-15T05:59:39;5.00;99.90
2973;DHT22;1496;51.404;7.232;2023-02-15T06:02:05;5.10;99.90
2973;DHT22;1496;51.404;7.232;2023-02-15T06:04:34;5.20;99.90
2973;DHT22;1496;51.404;7.232;2023-02-15T06:07:01;5.00;99.90
2973;DHT22;1496;51.404;7.232;2023-02-15T06:09:28;5.00;99.90
2973;DHT22;1496;51.404;7.232;2023-02-15T06:11:55;5.00;99.90
2973;DHT22;1496;51.404;7.232;2023-02-15T06:14:22;5.00;99.90
2973;DHT22;1496;51.404;7.232;2023-02-15T06:16:49;4.90;99.90
2973;DHT22;1496;51.404;7.232;2023-02-15T06:19:16;4.90;99.90
2973;DHT22;1496;51.404;7.232;2023-02-15T06:21:42;4.80;99.90
2973;DHT22;1496;51.404;7.232;2023-02-15T06:24:10;4.90;99.90
2973;DHT22;1496;51.404;7.232;2023-02-15T06:26:36;4.90;99.90
2973;DHT22;1496;51.404;7.232;2023-02-15T06:29:05;4.90;99.90
2973;DHT22;1496;51.404;7.232;2023-02-15T06:31:32;5.00;99.90
2973;DHT22;1496;51.404;7.232;2023-02-15T06:33:59;5.00;99.90
2973;DHT22;1496;51.404;7.232;2023-02-15T06:36:28;5.10;99.90
2973;DHT22;1496;51.404;7.232;2023-02-15T06:38:55;4.90;99.90
2973;DHT22;1496;51.404;7.232;2023-02-15T06:41:21;4.90;99.90
2973;DHT22;1496;51.404;7.232;2023-02-15T06:43:49;4.90;99.90
2973;DHT22;1496;51.404;7.232;2023-02-15T06:46:15;4.90;99.90
2973;DHT22;1496;51.404;7.232;2023-02-15T06:48:42;4.80;99.90
2973;DHT22;1496;51.404;7.232;2023-02-15T06:51:08;4.80;99.90
2973;DHT22;1496;51.404;7.232;2023-02-15T06:53:35;4.80;99.90
2973;DHT22;1496;51.404;7.232;2023-02-15T06:56:07;4.90;99.90
2973;DHT22;1496;51.404;7.232;2023-02-15T06:58:36;4.90;99.90
2973;DHT22;1496;51.404;7.232;2023-02-15T07:01:04;4.90;99.90
2973;DHT22;1496;51.404;7.232;2023-02-15T07:03:32;4.90;99.90
2973;DHT22;1496;51.404;7.232;2023-02-15T07:06:00;4.90;99.90
2973;DHT22;1496;51.404;7.232;2023-02-15T07:08:29;4.90;99.90
2973;DHT22;1496;51.404;7.232;2023-02-15T07:10:55;5.00;99.90
2973;DHT22;1496;51.404;7.232;2023-02-15T07:13:45;4.80;99.90
2973;DHT22;1496;51.404;7.232;2023-02-15T07:16:14;4.90;99.90
2973;DHT22;1496;51.404;7.232;2023-02-15T07:18:41;4.90;99.90
2973;DHT22;1496;51.404;7.232;2023-02-15T07:21:20;4.90;99.90
2973;DHT22;1496;51.404;7.232;2023-02-15T07:23:50;5.00;99.90
2973;DHT22;1496;51.404;7.232;2023-02-15T07:26:16;5.20;99.90
2973;DHT22;1496;51.404;7.232;2023-02-15T07:28:44;5.20;99.90
2973;DHT22;1496;51.404;7.232;2023-02-15T07:31:10;5.20;99.90
2973;DHT22;1496;51.404;7.232;2023-02-15T07:33:39;5.10;99.90
2973;DHT22;1496;51.404;7.232;2023-02-15T07:36:05;5.00;99.90
2973;DHT22;1496;51.404;7.232;2023-02-15T07:38:35;5.00;99.90
2973;DHT22;1496;51.404;7.232;2023-02-15T07:41:05;5.00;99.90
2973;DHT22;1496;51.404;7.232;2023-02-15T07:43:37;5.20;99.90
2973;DHT22;1496;51.404;7.232;2023-02-15T07:46:10;5.30;99.90
2973;DHT22;1496;51.404;7.232;2023-02-15T07:48:38;5.40;99.90
2973;DHT22;1496;51.404;7.232;2023-02-15T07:51:07;5.60;99.90
2973;DHT22;1496;51.404;7.232;2023-02-15T07:53:34;5.70;99.90
2973;DHT22;1496;51.404;7.232;2023-02-15T07:56:03;5.80;99.90
2973;DHT22;1496;51.404;7.232;2023-02-15T07:58:30;5.90;99.90
2973;DHT22;1496;51.404;7.232;2023-02-15T08:01:26;6.00;99.90
2973;DHT22;1496;51.404;7.232;2023-02-15T08:03:54;6.00;99.90
2973;DHT22;1496;51.404;7.232;2023-02-15T08:06:24;6.00;99.90
2973;DHT22;1496;51.404;7.232;2023-02-15T08:08:51;6.00;99.90
2973;DHT22;1496;51.404;7.232;2023-02-15T08:11:32;6.10;99.90
2973;DHT22;1496;51.404;7.232;2023-02-15T08:16:44;6.30;99.90
2973;DHT22;1496;51.404;7.232;2023-02-15T08:19:15;6.30;99.90
2973;DHT22;1496;51.404;7.232;2023-02-15T08:21:45;6.40;99.90
2973;DHT22;1496;51.404;7.232;2023-02-15T08:24:16;6.30;99.90
2973;DHT22;1496;51.404;7.232;2023-02-15T08:26:44;6.40;99.90
2973;DHT22;1496;51.404;7.232;2023-02-15T08:29:13;6.50;99.90
2973;DHT22;1496;51.404;7.232;2023-02-15T08:31:42;6.40;99.90
2973;DHT22;1496;51.404;7.232;2023-02-15T08:34:10;6.40;99.90
2973;DHT22;1496;51.404;7.232;2023-02-15T08:36:37;6.50;99.90
2973;DHT22;1496;51.404;7.232;2023-02-15T08:39:06;6.70;99.90
2973;DHT22;1496;51.404;7.232;2023-02-15T08:41:37;6.70;99.90
2973;DHT22;1496;51.404;7.232;2023-02-15T08:44:06;6.80;99.90
2973;DHT22;1496;51.404;7.232;2023-02-15T08:46:36;6.80;99.90
2973;DHT22;1496;51.404;7.232;2023-02-15T08:49:06;6.80;99.90
2973;DHT22;1496;51.404;7.232;2023-02-15T08:51:36;6.90;99.90
2973;DHT22;1496;51.404;7.232;2023-02-15T08:54:04;7.00;99.90
2973;DHT22;1496;51.404;7.232;2023-02-15T08:56:35;7.10;99.90
2973;DHT22;1496;51.404;7.232;2023-02-15T08:59:04;7.20;99.90
2973;DHT22;1496;51.404;7.232;2023-02-15T09:01:32;7.30;99.90
2973;DHT22;1496;51.404;7.232;2023-02-15T09:04:05;7.50;99.90
2973;DHT22;1496;51.404;7.232;2023-02-15T09:06:35;7.50;99.90
2973;DHT22;1496;51.404;7.232;2023-02-15T09:09:04;7.60;99.90
2973;DHT22;1496;51.404;7.232;2023-02-15T09:11:35;7.70;99.90
2973;DHT22;1496;51.404;7.232;2023-02-15T09:14:06;7.80;99.90
2973;DHT22;1496;51.404;7.232;2023-02-15T09:16:36;8.00;99.90
2973;DHT22;1496;51.404;7.232;2023-02-15T09:19:04;8.10;99.90
2973;DHT22;1496;51.404;7.232;2023-02-15T09:21:33;8.20;99.90
2973;DHT22;1496;51.404;7.232;2023-02-15T09:24:07;8.30;99.90
2973;DHT22;1496;51.404;7.232;2023-02-15T09:26:38;8.40;99.90
2973;DHT22;1496;51.404;7.232;2023-02-15T09:29:06;8.40;99.90
2973;DHT22;1496;51.404;7.232;2023-02-15T09:31:41;8.60;99.90
2973;DHT22;1496;51.404;7.232;2023-02-15T09:34:14;8.60;99.90
2973;DHT22;1496;51.404;7.232;2023-02-15T09:36:46;8.70;99.90
2973;DHT22;1496;51.404;7.232;2023-02-15T09:39:24;8.70;99.90
2973;DHT22;1496;51.404;7.232;2023-02-15T09:42:12;8.80;99.90
2973;DHT22;1496;51.404;7.232;2023-02-15T09:56:11;9.20;99.90
2973;DHT22;1496;51.404;7.232;2023-02-15T10:04:50;9.60;99.90
2973;DHT22;1496;51.404;7.232;2023-02-15T10:07:31;9.60;99.90
2973;DHT22;1496;51.404;7.232;2023-02-15T10:10:16;9.80;99.90
2973;DHT22;1496;51.404;7.232;2023-02-15T10:16:05;9.80;99.90
2973;DHT22;1496;51.404;7.232;2023-02-15T10:19:16;9.80;99.90
2973;DHT22;1496;51.404;7.232;2023-02-15T10:23:08;9.90;99.90
2973;DHT22;1496;51.404;7.232;2023-02-15T10:27:47;10.00;99.90
2973;DHT22;1496;51.404;7.232;2023-02-15T10:30:20;10.10;99.90
2973;DHT22;1496;51.404;7.232;2023-02-15T10:33:01;10.10;99.90
2973;DHT22;1496;51.404;7.232;2023-02-15T10:39:04;10.30;99.90
2973;DHT22;1496;51.404;7.232;2023-02-15T10:44:43;10.70;99.90
2973;DHT22;1496;51.404;7.232;2023-02-15T10:47:52;10.90;99.90
2973;DHT22;1496;51.404;7.232;2023-02-15T10:53:14;10.90;99.90
2973;DHT22;1496;51.404;7.232;2023-02-15T11:04:30;11.30;99.90
2973;DHT22;1496;51.404;7.232;2023-02-15T11:07:05;11.30;99.90
2973;DHT22;1496;51.404;7.232;2023-02-15T11:09:42;11.40;99.90
2973;DHT22;1496;51.404;7.232;2023-02-15T11:12:22;11.40;99.90
2973;DHT22;1496;51.404;7.232;2023-02-15T11:17:43;11.80;99.90
2973;DHT22;1496;51.404;7.232;2023-02-15T11:23:13;12.20;99.90
2973;DHT22;1496;51.404;7.232;2023-02-15T11:25:45;12.30;99.90
2973;DHT22;1496;51.404;7.232;2023-02-15T11:28:31;12.30;99.90
2973;DHT22;1496;51.404;7.232;2023-02-15T11:31:02;12.40;99.90
2973;DHT22;1496;51.404;7.232;2023-02-15T11:33:40;12.40;99.90
2973;DHT22;1496;51.404;7.232;2023-02-15T11:36:28;12.30;99.90
2973;DHT22;1496;51.404;7.232;2023-02-15T11:39:02;12.40;99.90
2973;DHT22;1496;51.404;7.232;2023-02-15T11:41:36;12.70;99.90
2973;DHT22;1496;51.404;7.232;2023-02-15T11:44:54;12.70;99.90
2973;DHT22;1496;51.404;7.232;2023-02-15T11:47:13;12.70;99.90
2973;DHT22;1496;51.404;7.232;2023-02-15T11:49:42;12.70;99.90
2973;DHT22;1496;51.404;7.232;2023-02-15T11:52:14;12.60;99.90
2973;DHT22;1496;51.404;7.232;2023-02-15T11:54:43;12.70;99.90
2973;DHT22;1496;51.404;7.232;2023-02-15T11:57:26;12.80;99.90
2973;DHT22;1496;51.404;7.232;2023-02-15T12:00:01;13.00;99.90
2973;DHT22;1496;51.404;7.232;2023-02-15T12:02:36;13.00;99.90
2973;DHT22;1496;51.404;7.232;2023-02-15T12:05:15;13.00;99.90
2973;DHT22;1496;51.404;7.232;2023-02-15T12:07:55;13.00;99.90
2973;DHT22;1496;51.404;7.232;2023-02-15T12:10:32;12.90;99.90
2973;DHT22;1496;51.404;7.232;2023-02-15T12:13:13;12.80;99.90
2973;DHT22;1496;51.404;7.232;2023-02-15T12:16:04;12.90;99.90
2973;DHT22;1496;51.404;7.232;2023-02-15T12:21:52;12.90;99.90
2973;DHT22;1496;51.404;7.232;2023-02-15T12:24:21;12.90;99.90
2973;DHT22;1496;51.404;7.232;2023-02-15T12:27:01;13.10;99.90
2973;DHT22;1496;51.404;7.232;2023-02-15T12:29:39;13.20;99.90
2973;DHT22;1496;51.404;7.232;2023-02-15T12:32:19;13.30;99.90
2973;DHT22;1496;51.404;7.232;2023-02-15T12:34:48;13.30;99.90
2973;DHT22;1496;51.404;7.232;2023-02-15T12:37:25;13.30;99.90
2973;DHT22;1496;51.404;7.232;2023-02-15T12:39:57;13.20;99.90
2973;DHT22;1496;51.404;7.232;2023-02-15T12:42:27;13.20;99.90
2973;DHT22;1496;51.404;7.232;2023-02-15T12:45:08;13.30;99.90
2973;DHT22;1496;51.404;7.232;2023-02-15T12:47:50;13.30;98.80
2973;DHT22;1496;51.404;7.232;2023-02-15T12:50:34;13.40;99.20
2973;DHT22;1496;51.404;7.232;2023-02-15T12:53:30;13.40;96.90
2973;DHT22;1496;51.404;7.232;2023-02-15T12:56:00;13.30;96.40
2973;DHT22;1496;51.404;7.232;2023-02-15T12:58:33;13.40;96.30
2973;DHT22;1496;51.404;7.232;2023-02-15T13:01:10;13.50;95.40
2973;DHT22;1496;51.404;7.232;2023-02-15T13:06:24;13.60;95.90
2973;DHT22;1496;51.404;7.232;2023-02-15T13:08:58;13.60;94.70
2973;DHT22;1496;51.404;7.232;2023-02-15T13:11:30;13.60;93.80
2973;DHT22;1496;51.404;7.232;2023-02-15T13:14:04;13.60;93.60
2973;DHT22;1496;51.404;7.232;2023-02-15T13:16:44;13.70;93.80
2973;DHT22;1496;51.404;7.232;2023-02-15T13:19:21;13.70;92.70
2973;DHT22;1496;51.404;7.232;2023-02-15T13:21:52;13.70;91.80
2973;DHT22;1496;51.404;7.232;2023-02-15T13:24:39;13.70;91.10
2973;DHT22;1496;51.404;7.232;2023-02-15T13:27:16;13.70;91.00
2973;DHT22;1496;51.404;7.232;2023-02-15T13:29:48;13.80;90.80
2973;DHT22;1496;51.404;7.232;2023-02-15T13:34:50;13.70;90.50
2973;DHT22;1496;51.404;7.232;2023-02-15T13:40:20;13.70;90.50
2973;DHT22;1496;51.404;7.232;2023-02-15T13:43:13;13.80;89.30
2973;DHT22;1496;51.404;7.232;2023-02-15T13:46:22;13.90;88.70
2973;DHT22;1496;51.404;7.232;2023-02-15T14:00:33;13.80;79.30
2973;DHT22;1496;51.404;7.232;2023-02-15T14:09:15;13.60;72.10
2973;DHT22;1496;51.404;7.232;2023-02-15T14:30:33;13.90;66.50
2973;DHT22;1496;51.404;7.232;2023-02-15T14:35:50;14.00;64.10
2973;DHT22;1496;51.404;7.232;2023-02-15T14:38:32;14.00;63.10
2973;DHT22;1496;51.404;7.232;2023-02-15T14:41:12;14.00;62.40
2973;DHT22;1496;51.404;7.232;2023-02-15T14:44:10;13.90;60.20
2973;DHT22;1496;51.404;7.232;2023-02-15T14:47:14;14.00;59.90
2973;DHT22;1496;51.404;7.232;2023-02-15T14:49:43;13.90;57.30
2973;DHT22;1496;51.404;7.232;2023-02-15T14:52:10;13.80;57.20
2973;DHT22;1496;51.404;7.232;2023-02-15T14:59:39;13.50;54.50
2973;DHT22;1496;51.404;7.232;2023-02-15T15:02:17;13.50;54.10
2973;DHT22;1496;51.404;7.232;2023-02-15T15:07:43;13.30;52.60
2973;DHT22;1496;51.404;7.232;2023-02-15T15:10:34;13.30;52.80
2973;DHT22;1496;51.404;7.232;2023-02-15T15:16:27;13.10;51.30
2973;DHT22;1496;51.404;7.232;2023-02-15T15:18:54;13.00;51.20
2973;DHT22;1496;51.404;7.232;2023-02-15T15:27:39;12.90;51.00
2973;DHT22;1496;51.404;7.232;2023-02-15T15:41:48;12.60;50.90
2973;DHT22;1496;51.404;7.232;2023-02-15T15:44:28;12.60;51.80
2973;DHT22;1496;51.404;7.232;2023-02-15T15:49:57;12.50;51.30
2973;DHT22;1496;51.404;7.232;2023-02-15T15:52:26;12.40;51.10
2973;DHT22;1496;51.404;7.232;2023-02-15T15:54:57;12.40;51.40
2973;DHT22;1496;51.404;7.232;2023-02-15T15:57:37;12.40;52.70
2973;DHT22;1496;51.404;7.232;2023-02-15T16:02:55;12.30;51.40
2973;DHT22;1496;51.404;7.232;2023-02-15T16:05:22;12.30;50.60
2973;DHT22;1496;51.404;7.232;2023-02-15T16:07:49;12.30;50.80
2973;DHT22;1496;51.404;7.232;2023-02-15T16:10:27;12.20;50.80
2973;DHT22;1496;51.404;7.232;2023-02-15T16:12:55;12.10;51.20
2973;DHT22;1496;51.404;7.232;2023-02-15T16:15:44;12.00;51.70
2973;DHT22;1496;51.404;7.232;2023-02-15T16:18:16;12.00;52.80
2973;DHT22;1496;51.404;7.232;2023-02-15T16:20:51;11.90;53.30
2973;DHT22;1496;51.404;7.232;2023-02-15T16:29:12;11.70;54.10
2973;DHT22;1496;51.404;7.232;2023-02-15T16:31:39;11.70;54.20
2973;DHT22;1496;51.404;7.232;2023-02-15T16:34:16;11.60;54.40
2973;DHT22;1496;51.404;7.232;2023-02-15T16:36:42;11.60;54.90
2973;DHT22;1496;51.404;7.232;2023-02-15T16:39:19;11.60;55.30
2973;DHT22;1496;51.404;7.232;2023-02-15T16:41:47;11.60;56.00
2973;DHT22;1496;51.404;7.232;2023-02-15T16:44:19;11.60;56.90
2973;DHT22;1496;51.404;7.232;2023-02-15T16:46:49;11.50;57.30
2973;DHT22;1496;51.404;7.232;2023-02-15T16:49:21;11.40;57.50
2973;DHT22;1496;51.404;7.232;2023-02-15T16:52:00;11.40;57.50
2973;DHT22;1496;51.404;7.232;2023-02-15T16:54:29;11.30;57.80
2973;DHT22;1496;51.404;7.232;2023-02-15T16:56:58;11.20;57.80
2973;DHT22;1496;51.404;7.232;2023-02-15T16:59:39;11.20;58.80
2973;DHT22;1496;51.404;7.232;2023-02-15T17:02:20;11.10;59.50
2973;DHT22;1496;51.404;7.232;2023-02-15T17:07:29;11.20;61.40
2973;DHT22;1496;51.404;7.232;2023-02-15T17:09:57;11.10;60.70
2973;DHT22;1496;51.404;7.232;2023-02-15T17:13:00;11.00;60.60
2973;DHT22;1496;51.404;7.232;2023-02-15T17:15:35;11.00;61.20
2973;DHT22;1496;51.404;7.232;2023-02-15T17:18:20;10.90;60.10
2973;DHT22;1496;51.404;7.232;2023-02-15T17:20:50;10.80;61.10
2973;DHT22;1496;51.404;7.232;2023-02-15T17:23:39;10.80;61.60
2973;DHT22;1496;51.404;7.232;2023-02-15T17:26:19;10.80;61.40
2973;DHT22;1496;51.404;7.232;2023-02-15T17:28:55;10.70;60.50
2973;DHT22;1496;51.404;7.232;2023-02-15T17:31:27;10.60;61.30
2973;DHT22;1496;51.404;7.232;2023-02-15T17:33:58;10.60;61.40
2973;DHT22;1496;51.404;7.232;2023-02-15T17:36:27;10.50;60.80
2973;DHT22;1496;51.404;7.232;2023-02-15T17:41:29;10.40;61.50
2973;DHT22;1496;51.404;7.232;2023-02-15T17:43:57;10.30;61.70
2973;DHT22;1496;51.404;7.232;2023-02-15T17:46:24;10.20;61.40
2973;DHT22;1496;51.404;7.232;2023-02-15T17:48:54;10.10;77.60
2973;DHT22;1496;51.404;7.232;2023-02-15T17:51:22;10.00;63.40
2973;DHT22;1496;51.404;7.232;2023-02-15T17:53:51;10.00;64.90
2973;DHT22;1496;51.404;7.232;2023-02-15T17:56:37;9.90;65.80
2973;DHT22;1496;51.404;7.232;2023-02-15T17:59:04;9.80;66.90
2973;DHT22;1496;51.404;7.232;2023-02-15T18:01:45;9.80;66.90
2973;DHT22;1496;51.404;7.232;2023-02-15T18:04:32;9.80;68.10
2973;DHT22;1496;51.404;7.232;2023-02-15T18:07:21;9.90;69.80
2973;DHT22;1496;51.404;7.232;2023-02-15T18:10:17;9.80;68.60
2973;DHT22;1496;51.404;7.232;2023-02-15T18:13:03;9.60;68.10
2973;DHT22;1496;51.404;7.232;2023-02-15T18:15:31;9.60;69.90
2973;DHT22;1496;51.404;7.232;2023-02-15T18:17:58;9.60;71.90
2973;DHT22;1496;51.404;7.232;2023-02-15T18:20:32;9.70;72.30
2973;DHT22;1496;51.404;7.232;2023-02-15T18:23:00;9.70;72.30
2973;DHT22;1496;51.404;7.232;2023-02-15T18:25:27;9.60;72.50
2973;DHT22;1496;51.404;7.232;2023-02-15T18:27:54;9.50;72.50
2973;DHT22;1496;51.404;7.232;2023-02-15T18:30:23;9.40;72.60
2973;DHT22;1496;51.404;7.232;2023-02-15T18:32:53;9.30;74.50
2973;DHT22;1496;51.404;7.232;2023-02-15T18:35:27;9.30;75.30
2973;DHT22;1496;51.404;7.232;2023-02-15T18:37:57;9.40;76.90
2973;DHT22;1496;51.404;7.232;2023-02-15T18:40:26;9.40;76.40
2973;DHT22;1496;51.404;7.232;2023-02-15T18:42:53;9.30;77.00
2973;DHT22;1496;51.404;7.232;2023-02-15T18:45:24;9.30;78.40
2973;DHT22;1496;51.404;7.232;2023-02-15T18:47:55;9.30;78.40
2973;DHT22;1496;51.404;7.232;2023-02-15T18:50:23;9.40;79.80
2973;DHT22;1496;51.404;7.232;2023-02-15T18:52:50;9.40;80.20
2973;DHT22;1496;51.404;7.232;2023-02-15T18:55:21;9.50;81.60
2973;DHT22;1496;51.404;7.232;2023-02-15T18:57:51;9.60;81.70
2973;DHT22;1496;51.404;7.232;2023-02-15T19:00:30;9.60;80.80
2973;DHT22;1496;51.404;7.232;2023-02-15T19:02:59;9.50;81.10
2973;DHT22;1496;51.404;7.232;2023-02-15T19:05:31;9.60;81.70
2973;DHT22;1496;51.404;7.232;2023-02-15T19:07:59;9.60;81.40
2973;DHT22;1496;51.404;7.232;2023-02-15T19:10:30;9.50;81.10
2973;DHT22;1496;51.404;7.232;2023-02-15T19:12:56;9.50;82.00
2973;DHT22;1496;51.404;7.232;2023-02-15T19:15:26;9.40;82.50
2973;DHT22;1496;51.404;7.232;2023-02-15T19:17:56;9.40;82.40
2973;DHT22;1496;51.404;7.232;2023-02-15T19:20:34;9.30;83.70
2973;DHT22;1496;51.404;7.232;2023-02-15T19:23:05;9.30;83.60
2973;DHT22;1496;51.404;7.232;2023-02-15T19:25:35;9.20;83.30
2973;DHT22;1496;51.404;7.232;2023-02-15T19:28:13;9.00;83.10
2973;DHT22;1496;51.404;7.232;2023-02-15T19:30:40;8.90;84.20
2973;DHT22;1496;51.404;7.232;2023-02-15T19:33:16;9.00;86.20
2973;DHT22;1496;51.404;7.232;2023-02-15T19:35:48;9.00;87.70